createdAt,value
2019-04-03T00:00:27.984Z,20.82
2019-04-03T00:02:54.018Z,18.70
2019-04-03T00:05:20.100Z,18.67
2019-04-03T00:07:46.143Z,21.87
2019-04-03T00:10:12.383Z,21.52
2019-04-03T00:12:40.448Z,20.72
2019-04-03T00:15:06.631Z,16.35
2019-04-03T00:17:32.678Z,16.82
2019-04-03T00:19:58.761Z,18.12
2019-04-03T00:22:24.888Z,17.00
2019-04-03T00:24:52.630Z,17.92
2019-04-03T00:27:19.078Z,16.37
2019-04-03T00:29:45.129Z,17.65
2019-04-03T00:32:11.170Z,17.20
2019-04-03T00:34:37.355Z,18.90
2019-04-03T00:37:03.489Z,16.15
2019-04-03T00:39:29.549Z,19.05
2019-04-03T00:41:55.625Z,16.87
2019-04-03T00:44:23.988Z,16.27
2019-04-03T00:46:49.633Z,20.95
2019-04-03T00:49:16.076Z,17.42
2019-04-03T00:51:42.624Z,18.52
2019-04-03T00:54:08.771Z,15.43
2019-04-03T00:56:34.896Z,15.13
2019-04-03T00:59:01.006Z,17.35
2019-04-03T01:01:27.045Z,16.30
2019-04-03T01:03:53.166Z,16.57
2019-04-03T01:06:19.358Z,18.10
2019-04-03T01:08:45.462Z,16.07
2019-04-03T01:11:11.734Z,14.68
2019-04-03T01:13:37.847Z,15.70
2019-04-03T01:16:04.334Z,16.75
2019-04-03T01:18:30.544Z,16.60
2019-04-03T01:20:56.582Z,16.70
2019-04-03T01:23:22.625Z,17.92
2019-04-03T01:25:49.196Z,17.62
2019-04-03T01:28:15.295Z,17.60
2019-04-03T01:30:43.828Z,17.35
2019-04-03T01:33:09.366Z,19.92
2019-04-03T01:35:35.414Z,19.85
2019-04-03T01:38:01.477Z,20.32
2019-04-03T01:40:27.561Z,18.12
2019-04-03T01:42:53.666Z,17.10
2019-04-03T01:45:19.766Z,17.43
2019-04-03T01:47:46.038Z,18.37
2019-04-03T01:50:12.477Z,18.27
2019-04-03T01:52:38.534Z,17.97
2019-04-03T01:55:04.994Z,15.78
2019-04-03T01:57:31.038Z,20.57
2019-04-03T01:59:57.102Z,16.27
2019-04-03T02:02:23.168Z,19.77
2019-04-03T02:04:49.215Z,18.57
2019-04-03T02:07:15.249Z,18.25
2019-04-03T02:09:41.370Z,16.90
2019-04-03T02:12:07.503Z,16.80
2019-04-03T02:14:33.586Z,21.37
2019-04-03T02:16:59.667Z,18.57
2019-04-03T02:19:26.593Z,17.03
2019-04-03T02:21:52.781Z,18.70
2019-04-03T02:24:19.108Z,18.45
2019-04-03T02:26:45.219Z,18.00
2019-04-03T02:29:11.452Z,15.93
2019-04-03T02:31:38.051Z,15.70
2019-04-03T02:34:04.108Z,16.52
2019-04-03T02:36:30.259Z,18.75
2019-04-03T02:38:56.390Z,16.07
2019-04-03T02:41:22.430Z,15.90
2019-04-03T02:43:48.469Z,16.40
2019-04-03T02:46:14.690Z,16.00
2019-04-03T02:48:40.931Z,22.15
2019-04-03T02:51:06.973Z,17.57
2019-04-03T02:53:33.401Z,18.47
2019-04-03T02:55:59.712Z,18.03
2019-04-03T02:58:25.928Z,16.23
2019-04-03T03:00:52.274Z,17.23
2019-04-03T03:03:18.627Z,19.92
2019-04-03T03:05:44.700Z,17.67
2019-04-03T03:08:10.754Z,15.83
2019-04-03T03:10:37.270Z,19.62
2019-04-03T03:13:03.678Z,15.72
2019-04-03T03:15:29.942Z,17.77
2019-04-03T03:17:56.441Z,18.98
2019-04-03T03:20:23.394Z,17.37
2019-04-03T03:22:51.167Z,15.50
2019-04-03T03:25:18.438Z,15.57
2019-04-03T03:27:45.706Z,16.27
2019-04-03T03:30:33.027Z,18.10
2019-04-03T03:32:40.941Z,17.47
2019-04-03T03:35:13.296Z,15.57
2019-04-03T03:37:36.318Z,16.70
2019-04-03T03:40:04.569Z,16.45
2019-04-03T03:42:32.103Z,15.72
2019-04-03T03:45:02.073Z,17.02
2019-04-03T03:47:34.267Z,16.52
2019-04-03T03:50:00.528Z,16.40
2019-04-03T03:52:26.966Z,15.93
2019-04-03T03:54:53.721Z,15.78
2019-04-03T03:57:20.430Z,18.95
2019-04-03T03:59:51.438Z,14.78
2019-04-03T04:02:16.423Z,21.10
2019-04-03T04:04:46.659Z,19.80
2019-04-03T04:07:10.550Z,20.50
2019-04-03T04:09:36.806Z,17.73
2019-04-03T04:12:05.977Z,17.80
2019-04-03T04:14:30.835Z,17.87
2019-04-03T04:16:57.067Z,16.77
2019-04-03T04:19:23.518Z,16.50
2019-04-03T04:21:49.654Z,15.63
2019-04-03T04:24:16.199Z,16.27
2019-04-03T04:26:42.553Z,15.80
2019-04-03T04:29:10.646Z,15.38
2019-04-03T04:31:36.739Z,16.07
2019-04-03T04:34:03.017Z,17.70
2019-04-03T04:36:29.057Z,19.37
2019-04-03T04:38:55.828Z,14.55
2019-04-03T04:41:23.646Z,17.47
2019-04-03T04:43:49.721Z,16.82
2019-04-03T04:46:15.770Z,16.93
2019-04-03T04:48:41.997Z,17.55
2019-04-03T04:51:08.397Z,16.40
2019-04-03T04:53:34.452Z,18.02
2019-04-03T04:56:00.537Z,15.72
2019-04-03T04:58:26.586Z,15.65
2019-04-03T05:00:53.688Z,17.32
2019-04-03T05:03:21.850Z,17.17
2019-04-03T05:05:48.088Z,18.12
2019-04-03T05:08:14.203Z,15.48
2019-04-03T05:10:40.611Z,16.23
2019-04-03T05:13:06.709Z,17.45
2019-04-03T05:15:32.957Z,16.07
2019-04-03T05:17:59.146Z,15.45
2019-04-03T05:20:25.188Z,18.45
2019-04-03T05:22:51.439Z,16.17
2019-04-03T05:25:17.618Z,19.57
2019-04-03T05:27:43.932Z,18.57
2019-04-03T05:30:10.306Z,19.42
2019-04-03T05:32:36.782Z,18.57
2019-04-03T05:35:04.605Z,15.47
2019-04-03T05:37:31.367Z,18.57
2019-04-03T05:39:57.842Z,18.45
2019-04-03T05:42:23.920Z,17.62
2019-04-03T05:44:49.962Z,16.95
2019-04-03T05:47:16.252Z,20.13
2019-04-03T05:49:42.519Z,21.75
2019-04-03T05:52:08.661Z,20.35
2019-04-03T05:54:35.015Z,19.82
2019-04-03T05:57:01.059Z,16.75
2019-04-03T05:59:27.114Z,23.10
2019-04-03T06:01:53.169Z,20.35
2019-04-03T06:04:19.515Z,15.75
2019-04-03T06:06:46.874Z,19.57
2019-04-03T06:09:13.569Z,19.75
2019-04-03T06:11:40.535Z,20.48
2019-04-03T06:14:08.785Z,19.90
2019-04-03T06:16:35.385Z,17.05
2019-04-03T06:19:01.506Z,23.45
2019-04-03T06:21:27.551Z,24.07
2019-04-03T06:23:53.973Z,24.27
2019-04-03T06:26:20.087Z,28.45
2019-04-03T06:28:47.610Z,22.58
2019-04-03T06:31:13.958Z,19.57
2019-04-03T06:33:40.087Z,22.55
2019-04-03T06:36:06.403Z,21.43
2019-04-03T06:38:32.602Z,22.02
2019-04-03T06:40:58.650Z,25.15
2019-04-03T06:43:24.772Z,18.73
2019-04-03T06:45:51.025Z,21.05
2019-04-03T06:48:17.060Z,20.08
2019-04-03T06:50:43.672Z,23.50
2019-04-03T06:53:09.802Z,20.12
2019-04-03T06:55:36.539Z,22.40
2019-04-03T06:58:02.739Z,21.12
2019-04-03T07:00:28.888Z,18.67
2019-04-03T07:02:55.311Z,18.47
2019-04-03T07:05:22.083Z,21.57
2019-04-03T07:07:48.223Z,23.10
2019-04-03T07:10:24.015Z,20.32
2019-04-03T07:12:42.443Z,19.45
2019-04-03T07:15:09.033Z,19.30
2019-04-03T07:17:35.077Z,22.57
2019-04-03T07:20:12.509Z,17.70
2019-04-03T07:22:29.334Z,22.32
2019-04-03T07:24:55.391Z,22.52
2019-04-03T07:27:21.603Z,19.42
2019-04-03T07:29:49.321Z,20.37
2019-04-03T07:32:15.749Z,18.62
2019-04-03T07:34:41.880Z,19.30
2019-04-03T07:37:07.947Z,18.62
2019-04-03T07:39:33.994Z,19.02
2019-04-03T07:42:00.455Z,17.52
2019-04-03T07:44:29.156Z,18.70
2019-04-03T07:46:55.289Z,19.25
2019-04-03T07:49:21.894Z,20.02
2019-04-03T07:51:48.663Z,19.05
2019-04-03T07:54:14.884Z,19.75
2019-04-03T07:56:40.984Z,16.48
2019-04-03T07:59:07.096Z,17.42
2019-04-03T08:01:33.139Z,17.70
2019-04-03T08:03:59.194Z,17.85
2019-04-03T08:06:25.547Z,15.98
2019-04-03T08:09:05.615Z,17.82
2019-04-03T08:11:19.647Z,21.55
2019-04-03T08:13:45.966Z,17.10
2019-04-03T08:16:12.112Z,17.95
2019-04-03T08:18:38.166Z,20.80
2019-04-03T08:21:04.275Z,17.40
2019-04-03T08:23:30.459Z,17.62
2019-04-03T08:25:56.872Z,16.60
2019-04-03T08:28:25.990Z,23.45
2019-04-03T08:30:51.306Z,17.57
2019-04-03T08:33:19.794Z,15.85
2019-04-03T08:35:45.534Z,15.50
2019-04-03T08:38:13.422Z,16.50
2019-04-03T08:40:39.526Z,14.58
2019-04-03T08:43:05.640Z,13.38
2019-04-03T08:45:31.911Z,13.35
2019-04-03T08:47:58.543Z,14.68
2019-04-03T08:50:24.734Z,14.83
2019-04-03T08:52:50.868Z,15.35
2019-04-03T08:55:17.171Z,15.10
2019-04-03T08:57:45.864Z,14.87
2019-04-03T09:00:12.077Z,15.13
2019-04-03T09:02:38.242Z,18.92
2019-04-03T09:05:05.726Z,13.98
2019-04-03T09:07:31.818Z,12.90
2019-04-03T09:10:00.416Z,14.13
2019-04-03T09:12:30.282Z,13.13
2019-04-03T09:14:57.032Z,13.22
2019-04-03T09:17:23.939Z,14.47
2019-04-03T09:19:50.362Z,14.68
2019-04-03T09:22:16.488Z,12.63
2019-04-03T09:24:43.059Z,12.88
2019-04-03T09:27:10.065Z,12.07
2019-04-03T09:29:36.629Z,14.20
2019-04-03T09:32:02.779Z,12.82
2019-04-03T09:34:30.054Z,16.48
2019-04-03T09:36:56.834Z,13.93
2019-04-03T09:39:22.930Z,16.25
2019-04-03T09:41:50.918Z,13.83
2019-04-03T09:44:17.091Z,15.18
2019-04-03T09:46:44.701Z,18.62
2019-04-03T09:49:11.253Z,12.35
2019-04-03T09:51:37.494Z,10.63
2019-04-03T09:54:03.851Z,12.55
2019-04-03T09:56:30.213Z,12.82
2019-04-03T09:58:56.768Z,13.88
2019-04-03T10:01:22.942Z,10.70
2019-04-03T10:03:49.274Z,11.75
2019-04-03T10:06:15.321Z,14.60
2019-04-03T10:08:41.602Z,11.57
2019-04-03T10:11:08.267Z,11.68
2019-04-03T10:13:34.382Z,11.55
2019-04-03T10:16:03.229Z,9.73
2019-04-03T10:18:28.402Z,10.90
2019-04-03T10:20:54.561Z,10.93
2019-04-03T10:23:20.734Z,12.07
2019-04-03T10:25:46.997Z,9.98
2019-04-03T10:28:14.800Z,28.87
2019-04-03T10:30:41.027Z,11.68
2019-04-03T10:33:07.258Z,12.58
2019-04-03T10:35:33.404Z,13.08
2019-04-03T10:37:59.741Z,12.78
2019-04-03T10:40:26.394Z,13.85
2019-04-03T10:42:52.697Z,13.15
2019-04-03T10:45:19.119Z,14.25
2019-04-03T10:47:45.723Z,13.45
2019-04-03T10:50:12.202Z,15.45
2019-04-03T10:52:38.350Z,14.00
2019-04-03T10:55:06.900Z,12.43
2019-04-03T10:57:33.936Z,12.33
2019-04-03T11:00:01.094Z,12.95
2019-04-03T11:02:27.544Z,12.47
2019-04-03T11:04:53.703Z,13.05
2019-04-03T11:07:19.766Z,12.82
2019-04-03T11:09:45.933Z,13.40
2019-04-03T11:12:11.957Z,12.63
2019-04-03T11:14:39.223Z,11.97
2019-04-03T11:17:05.978Z,11.95
2019-04-03T11:19:32.240Z,11.57
2019-04-03T11:21:58.346Z,12.47
2019-04-03T11:24:24.526Z,11.33
2019-04-03T11:26:52.033Z,10.48
2019-04-03T11:29:18.569Z,12.28
2019-04-03T11:31:45.423Z,11.38
2019-04-03T11:34:11.502Z,12.82
2019-04-03T11:36:37.635Z,12.10
2019-04-03T11:39:13.544Z,10.85
2019-04-03T11:41:35.607Z,11.78
2019-04-03T11:44:01.714Z,10.03
2019-04-03T11:46:27.829Z,10.20
2019-04-03T11:48:54.247Z,10.50
2019-04-03T11:51:20.418Z,8.38
2019-04-03T11:53:47.145Z,7.97
2019-04-03T11:56:14.015Z,9.55
2019-04-03T11:58:40.246Z,11.00
2019-04-03T12:01:07.701Z,11.35
2019-04-03T12:03:33.807Z,12.00
2019-04-03T12:05:59.837Z,11.97
2019-04-03T12:08:28.507Z,13.15
2019-04-03T12:10:53.981Z,13.48
2019-04-03T12:13:21.783Z,17.12
2019-04-03T12:15:47.993Z,12.03
2019-04-03T12:18:14.095Z,11.73
2019-04-03T12:20:43.737Z,11.50
2019-04-03T12:23:08.491Z,11.05
2019-04-03T12:25:36.457Z,11.90
2019-04-03T12:28:02.605Z,10.32
2019-04-03T12:30:29.313Z,13.30
2019-04-03T12:32:55.697Z,12.85
2019-04-03T12:35:21.826Z,9.85
2019-04-03T12:37:50.197Z,9.78
2019-04-03T12:40:16.258Z,15.95
2019-04-03T12:42:42.323Z,11.73
2019-04-03T12:45:08.717Z,11.55
2019-04-03T12:47:34.767Z,9.55
2019-04-03T12:50:00.905Z,8.18
2019-04-03T12:52:26.993Z,7.90
2019-04-03T12:54:54.564Z,8.93
2019-04-03T12:57:21.188Z,7.97
2019-04-03T12:59:48.142Z,7.28
2019-04-03T13:02:14.723Z,8.80
2019-04-03T13:04:40.897Z,7.00
2019-04-03T13:07:07.387Z,7.05
2019-04-03T13:09:33.532Z,6.92
2019-04-03T13:12:00.179Z,10.20
2019-04-03T13:14:27.626Z,8.53
2019-04-03T13:16:54.353Z,8.95
2019-04-03T13:19:20.407Z,11.85
2019-04-03T13:21:46.558Z,8.18
2019-04-03T13:24:12.707Z,8.68
2019-04-03T13:26:39.161Z,9.40
2019-04-03T13:29:08.602Z,7.87
2019-04-03T13:31:33.410Z,9.55
2019-04-03T13:33:59.453Z,7.85
2019-04-03T13:36:25.558Z,8.45
2019-04-03T13:38:51.816Z,7.78
2019-04-03T13:41:17.956Z,8.20
2019-04-03T13:43:44.162Z,8.38
2019-04-03T13:46:10.206Z,8.90
2019-04-03T13:48:36.274Z,7.62
2019-04-03T13:51:03.001Z,8.33
2019-04-03T13:53:29.289Z,9.35
2019-04-03T13:55:55.773Z,7.15
2019-04-03T13:58:22.132Z,8.80
2019-04-03T14:00:59.386Z,7.60
2019-04-03T14:03:18.149Z,8.13
2019-04-03T14:05:44.503Z,7.50
2019-04-03T14:08:12.142Z,8.73
2019-04-03T14:10:38.715Z,8.28
2019-04-03T14:13:04.960Z,8.20
2019-04-03T14:15:31.174Z,13.93
2019-04-03T14:17:59.072Z,7.95
2019-04-03T14:20:25.877Z,7.58
2019-04-03T14:22:52.241Z,8.85
2019-04-03T14:25:22.294Z,8.38
2019-04-03T14:27:46.533Z,7.92
2019-04-03T14:30:13.209Z,8.05
2019-04-03T14:32:39.330Z,7.72
2019-04-03T14:35:38.463Z,7.90
2019-04-03T14:37:34.490Z,8.53
2019-04-03T14:40:00.559Z,10.03
2019-04-03T14:42:27.351Z,7.45
2019-04-03T14:44:53.477Z,7.60
2019-04-03T14:47:20.165Z,8.78
2019-04-03T14:49:47.682Z,7.92
2019-04-03T14:52:15.015Z,8.70
2019-04-03T14:54:41.946Z,8.18
2019-04-03T14:57:17.965Z,8.60
2019-04-03T14:59:36.113Z,8.15
2019-04-03T15:02:02.571Z,9.03
2019-04-03T15:04:32.525Z,8.58
2019-04-03T15:07:03.546Z,7.97
2019-04-03T15:09:27.047Z,7.97
2019-04-03T15:11:52.893Z,8.35
2019-04-03T15:14:21.877Z,8.18
2019-04-03T15:16:46.886Z,8.25
2019-04-03T15:19:14.099Z,8.88
2019-04-03T15:21:40.961Z,14.80
2019-04-03T15:24:07.023Z,7.25
2019-04-03T15:26:33.141Z,7.22
2019-04-03T15:28:59.948Z,7.72
2019-04-03T15:31:27.124Z,7.50
2019-04-03T15:33:55.436Z,8.08
2019-04-03T15:36:21.540Z,6.80
2019-04-03T15:38:47.694Z,8.73
2019-04-03T15:41:13.891Z,9.23
2019-04-03T15:43:39.935Z,7.47
2019-04-03T15:46:06.473Z,7.10
2019-04-03T15:48:33.308Z,10.35
2019-04-03T15:51:00.308Z,9.65
2019-04-03T15:53:26.996Z,10.78
2019-04-03T15:55:53.452Z,7.22
2019-04-03T15:58:19.630Z,6.53
2019-04-03T16:00:45.834Z,7.87
2019-04-03T16:03:12.005Z,8.55
2019-04-03T16:05:38.588Z,6.97
2019-04-03T16:08:05.718Z,7.45
2019-04-03T16:10:31.900Z,6.78
2019-04-03T16:12:57.952Z,6.50
2019-04-03T16:15:24.558Z,6.40
2019-04-03T16:17:50.769Z,8.28
2019-04-03T16:20:17.734Z,7.37
2019-04-03T16:22:44.571Z,7.90
2019-04-03T16:25:11.186Z,9.30
2019-04-03T16:27:37.435Z,10.90
2019-04-03T16:30:08.328Z,7.25
2019-04-03T16:32:34.490Z,9.75
2019-04-03T16:35:00.529Z,9.23
2019-04-03T16:37:26.654Z,13.93
2019-04-03T16:39:52.695Z,10.03
2019-04-03T16:42:19.106Z,9.03
2019-04-03T16:44:45.756Z,9.90
2019-04-03T16:47:13.026Z,9.75
2019-04-03T16:49:40.214Z,10.93
2019-04-03T16:52:06.339Z,9.65
2019-04-03T16:54:33.586Z,12.43
2019-04-03T16:57:00.637Z,10.10
2019-04-03T16:59:27.963Z,10.90
2019-04-03T17:01:54.523Z,14.63
2019-04-03T17:04:27.004Z,11.53
2019-04-03T17:06:49.111Z,12.82
2019-04-03T17:09:15.658Z,11.88
2019-04-03T17:11:44.925Z,10.15
2019-04-03T17:14:09.671Z,11.25
2019-04-03T17:16:37.385Z,10.93
2019-04-03T17:19:04.210Z,11.20
2019-04-03T17:21:36.917Z,11.63
2019-04-03T17:23:58.995Z,11.83
2019-04-03T17:26:25.089Z,11.43
2019-04-03T17:29:01.928Z,12.10
2019-04-03T17:31:21.611Z,11.97
2019-04-03T17:33:47.323Z,11.78
2019-04-03T17:36:13.437Z,11.88
2019-04-03T17:38:40.278Z,13.72
2019-04-03T17:41:07.128Z,13.38
2019-04-03T17:43:33.486Z,14.28
2019-04-03T17:45:59.918Z,14.10
2019-04-03T17:48:25.973Z,12.43
2019-04-03T17:50:52.013Z,13.43
2019-04-03T17:53:18.318Z,13.72
2019-04-03T17:55:45.486Z,16.85
2019-04-03T17:58:11.674Z,14.23
2019-04-03T18:00:37.802Z,14.30
2019-04-03T18:03:03.849Z,13.40
2019-04-03T18:05:29.895Z,12.68
2019-04-03T18:07:58.637Z,14.38
2019-04-03T18:10:23.891Z,13.20
2019-04-03T18:12:52.055Z,16.05
2019-04-03T18:15:18.022Z,12.53
2019-04-03T18:17:44.052Z,18.30
2019-04-03T18:20:12.498Z,17.48
2019-04-03T18:22:38.622Z,12.78
2019-04-03T18:25:08.346Z,13.43
2019-04-03T18:27:34.625Z,10.13
2019-04-03T18:30:00.787Z,10.08
2019-04-03T18:32:29.702Z,10.40
2019-04-03T18:34:55.523Z,12.78
2019-04-03T18:37:22.029Z,11.45
2019-04-03T18:39:48.135Z,14.13
2019-04-03T18:42:14.184Z,11.60
2019-04-03T18:44:40.304Z,11.15
2019-04-03T18:47:06.767Z,10.50
2019-04-03T18:49:33.422Z,10.18
2019-04-03T18:51:59.629Z,16.35
2019-04-03T18:54:25.705Z,10.72
2019-04-03T18:56:52.020Z,14.20
2019-04-03T18:59:18.158Z,12.13
2019-04-03T19:01:44.211Z,11.55
2019-04-03T19:04:10.262Z,10.00
2019-04-03T19:06:36.326Z,14.20
2019-04-03T19:09:10.043Z,11.33
2019-04-03T19:11:34.484Z,15.13
2019-04-03T19:14:00.703Z,12.18
2019-04-03T19:16:29.879Z,15.70
2019-04-03T19:19:07.091Z,15.45
2019-04-03T19:21:25.509Z,16.05
2019-04-03T19:23:53.682Z,15.00
2019-04-03T19:26:18.553Z,16.48
2019-04-03T19:28:44.790Z,13.80
2019-04-03T19:31:10.849Z,14.50
2019-04-03T19:33:36.869Z,14.80
2019-04-03T19:36:03.166Z,15.75
2019-04-03T19:38:29.221Z,20.50
2019-04-03T19:40:55.260Z,17.00
2019-04-03T19:43:21.382Z,18.25
2019-04-03T19:45:47.434Z,22.60
2019-04-03T19:48:13.491Z,13.78
2019-04-03T19:50:40.818Z,12.40
2019-04-03T19:55:43.367Z,9.85
2019-04-03T19:58:11.808Z,11.97
2019-04-03T20:00:40.214Z,19.80
2019-04-03T20:03:08.702Z,16.17
2019-04-03T20:05:37.135Z,15.38
2019-04-03T20:08:05.631Z,12.60
2019-04-03T20:10:34.458Z,9.65
2019-04-03T20:13:02.943Z,10.38
2019-04-03T20:15:31.367Z,9.98
2019-04-03T20:17:59.822Z,10.53
2019-04-03T20:20:31.469Z,19.82
2019-04-03T20:22:58.415Z,12.78
2019-04-03T20:25:26.874Z,16.05
2019-04-03T20:27:57.056Z,17.77
2019-04-03T20:30:25.458Z,12.20
2019-04-03T20:32:54.018Z,14.83
2019-04-03T20:35:22.443Z,13.68
2019-04-03T20:37:50.866Z,15.58
2019-04-03T20:40:19.351Z,13.18
2019-04-03T20:42:47.778Z,15.15
2019-04-03T20:45:18.792Z,10.05
2019-04-03T20:47:46.445Z,11.45
2019-04-03T20:50:16.242Z,8.78
2019-04-03T20:52:46.307Z,7.92
2019-04-03T20:55:15.062Z,8.05
2019-04-03T20:57:54.948Z,10.20
2019-04-03T21:00:18.074Z,8.88
2019-04-03T21:02:45.658Z,8.93
2019-04-03T21:05:14.150Z,7.92
2019-04-03T21:07:42.574Z,9.28
2019-04-03T21:10:11.286Z,7.50
2019-04-03T21:12:39.698Z,7.92
2019-04-03T21:15:09.323Z,8.05
2019-04-03T21:17:38.058Z,8.40
2019-04-03T21:20:06.832Z,8.60
2019-04-03T21:22:35.265Z,8.58
2019-04-03T21:25:06.108Z,8.90
2019-04-03T21:27:34.682Z,8.03
2019-04-03T21:30:03.762Z,8.85
2019-04-03T21:32:32.498Z,10.63
2019-04-03T21:35:03.083Z,9.60
2019-04-03T21:37:31.039Z,11.20
2019-04-03T21:40:04.322Z,9.73
2019-04-03T21:42:29.773Z,9.80
2019-04-03T21:44:58.188Z,10.30
2019-04-03T21:47:26.609Z,10.07
2019-04-03T21:49:55.026Z,11.00
2019-04-03T21:52:23.552Z,10.13
2019-04-03T21:54:52.125Z,10.20
2019-04-03T21:57:20.542Z,9.83
2019-04-03T21:59:48.969Z,9.73
2019-04-03T22:02:17.522Z,8.93
2019-04-03T22:04:45.961Z,9.28
2019-04-03T22:07:14.441Z,8.97
2019-04-03T22:09:42.911Z,9.20
2019-04-03T22:12:11.320Z,7.83
2019-04-03T22:14:40.979Z,7.60
2019-04-03T22:17:10.087Z,8.10
2019-04-03T22:19:38.553Z,6.60
2019-04-03T22:22:06.989Z,7.03
2019-04-03T22:24:37.521Z,6.13
2019-04-03T22:27:05.666Z,5.90
2019-04-03T22:32:59.275Z,5.33
2019-04-03T22:35:28.073Z,5.40
2019-04-03T22:37:56.685Z,5.67
2019-04-03T22:40:25.268Z,5.33
2019-04-03T22:42:53.709Z,4.53
2019-04-03T22:45:22.162Z,5.07
2019-04-03T22:47:50.627Z,4.87
2019-04-03T22:50:19.070Z,4.50
2019-04-03T22:52:47.475Z,5.20
2019-04-03T22:55:15.947Z,4.53
2019-04-03T22:57:44.659Z,5.13
2019-04-03T23:00:13.222Z,4.83
2019-04-03T23:02:41.875Z,4.90
2019-04-03T23:05:10.326Z,4.60
2019-04-03T23:07:38.802Z,4.80
2019-04-03T23:10:07.598Z,4.87
2019-04-03T23:12:35.997Z,4.90
2019-04-03T23:15:08.713Z,4.50
2019-04-03T23:17:36.480Z,3.67
2019-04-03T23:20:05.937Z,4.13
2019-04-03T23:22:34.354Z,4.40
2019-04-03T23:25:02.955Z,4.50
2019-04-03T23:27:32.888Z,4.30
2019-04-03T23:30:01.571Z,4.13
2019-04-03T23:32:30.173Z,4.30
2019-04-03T23:34:58.581Z,4.30
2019-04-03T23:37:26.993Z,4.20
2019-04-03T23:39:55.593Z,3.90
2019-04-03T23:42:23.994Z,3.63
2019-04-03T23:44:52.971Z,4.00
2019-04-03T23:47:21.727Z,4.10
2019-04-03T23:49:51.094Z,4.03
2019-04-03T23:52:20.175Z,3.80
2019-04-03T23:54:48.754Z,3.87
2019-04-03T23:57:17.216Z,3.50
2019-04-03T23:59:45.729Z,3.60
